Impacts TAF Board
For situational awareness. Not to be used for flight planning purposes.
IDs:

KLAX - Los Angeles Intl, CA, US

Issued at 0543 UTC 18 Jan 2019
Updated at 0910 UTC 18 Jan 2019
Potential Impact None Slight Moderate High
Time<<19/10Z 19/11Z 19/12Z 19/13Z 19/14Z 19/15Z 19/16Z 19/17Z 19/18Z 19/19Z 19/20Z 19/21Z 19/22Z
Type PRVL PRVL
VIS >6 >6
CIG -- --
Cover SCT SCT
FltCat VFR VFR
WX -- --
WDir VRB VRB
WSpd 3 3
WGst -- --
Raw TAF
KLAX 180543Z 1806/1912 26008KT P6SM OVC007
  FM181200 VRB03KT P6SM OVC012
  FM181900 26010KT P6SM SCT025
  FM190400 VRB03KT P6SM SCT025


METAR Board
Radar Display
Forecast Discussion
For situational awareness. Not to be used for flight planning purposes.